createdAt,value
2018-09-05T00:00:36.675Z,15.4
2018-09-05T00:01:26.742Z,15.4
2018-09-05T00:02:16.522Z,15.4
2018-09-05T00:03:06.590Z,15.4
2018-09-05T00:03:56.668Z,15.4
2018-09-05T00:04:47.000Z,15.3
2018-09-05T00:05:36.507Z,15.4
2018-09-05T00:06:27.190Z,15.3
2018-09-05T00:07:16.928Z,15.3
2018-09-05T00:08:06.985Z,15.3
2018-09-05T00:08:57.623Z,15.3
2018-09-05T00:09:47.384Z,15.3
2018-09-05T00:10:37.549Z,15.3
2018-09-05T00:11:27.507Z,15.3
2018-09-05T00:12:17.296Z,15.3
2018-09-05T00:31:39.301Z,15.2
2018-09-05T00:32:29.393Z,15.2
2018-09-05T00:33:19.451Z,15.2
2018-09-05T00:34:09.226Z,15.2
2018-09-05T00:34:59.294Z,15.2
2018-09-05T00:35:49.338Z,15.2
2018-09-05T00:36:39.700Z,15.2
2018-09-05T00:37:29.483Z,15.2
2018-09-05T00:38:19.823Z,15.1
2018-09-05T00:39:09.599Z,15.1
2018-09-05T00:39:59.684Z,15.1
2018-09-05T00:40:49.737Z,15.1
2018-09-05T00:41:40.115Z,15.1
2018-09-05T00:42:30.145Z,15.1
2018-09-05T00:43:20.218Z,15.1
2018-09-05T00:44:09.994Z,15.1
2018-09-05T00:45:00.047Z,15.1
2018-09-05T00:45:50.409Z,15.1
2018-09-05T00:46:39.887Z,15.1
2018-09-05T00:47:30.532Z,15.1
2018-09-05T00:48:19.731Z,15.1
2018-09-05T00:49:10.367Z,15.1
2018-09-05T00:50:00.479Z,15.1
2018-09-05T00:50:50.777Z,15.1
2018-09-05T00:51:40.854Z,15.1
2018-09-05T00:52:30.622Z,15.1
2018-09-05T00:53:20.122Z,15.1
2018-09-05T00:54:10.761Z,15.1
2018-09-05T00:55:00.832Z,15.1
2018-09-05T00:55:51.159Z,15.1
2018-09-05T00:56:41.209Z,15.1
2018-09-05T00:57:30.994Z,15
2018-09-05T00:58:21.084Z,15
2018-09-05T00:59:11.450Z,15.1
2018-09-05T01:00:01.224Z,15
2018-09-05T01:00:51.278Z,15.1
2018-09-05T01:01:41.317Z,15
2018-09-05T01:02:31.427Z,15
2018-09-05T01:03:21.422Z,15
2018-09-05T01:04:11.491Z,15.1
2018-09-05T01:05:01.549Z,15.1
2018-09-05T01:05:51.606Z,15
2018-09-05T01:06:41.985Z,15
2018-09-05T01:07:32.040Z,15
2018-09-05T01:08:22.101Z,15
2018-09-05T01:09:12.194Z,15
2018-09-05T01:10:02.459Z,15
2018-09-05T01:10:52.289Z,15
2018-09-05T01:11:42.338Z,15
2018-09-05T01:12:31.796Z,15
2018-09-05T01:13:22.734Z,15
2018-09-05T01:14:11.976Z,15
2018-09-05T01:15:02.049Z,14.9
2018-09-05T01:15:52.381Z,14.9
2018-09-05T01:16:42.731Z,14.9
2018-09-05T01:17:32.233Z,14.9
2018-09-05T01:18:22.850Z,14.9
2018-09-05T01:19:12.931Z,14.9
2018-09-05T01:20:03.017Z,14.9
2018-09-05T01:20:53.046Z,14.9
2018-09-05T01:21:42.558Z,14.9
2018-09-05T01:22:33.165Z,14.9
2018-09-05T01:23:23.248Z,14.9
2018-09-05T01:24:13.327Z,14.9
2018-09-05T01:25:03.381Z,14.9
2018-09-05T01:25:53.463Z,14.9
2018-09-05T01:26:43.248Z,14.9
2018-09-05T01:27:34.053Z,14.9
2018-09-05T01:28:23.347Z,14.9
2018-09-05T01:29:13.690Z,14.9
2018-09-05T01:30:03.205Z,14.9
2018-09-05T01:30:53.815Z,14.8
2018-09-05T01:31:43.606Z,14.8
2018-09-05T01:32:33.960Z,14.8
2018-09-05T01:33:23.752Z,14.8
2018-09-05T01:34:14.053Z,14.8
2018-09-05T01:35:03.870Z,14.9
2018-09-05T01:35:54.244Z,14.8
2018-09-05T01:36:44.016Z,14.8
2018-09-05T01:37:34.626Z,14.8
2018-09-05T01:38:23.837Z,14.8
2018-09-05T01:39:14.717Z,14.8
2018-09-05T01:40:04.541Z,14.8
2018-09-05T01:40:54.588Z,14.8
2018-09-05T01:41:44.677Z,14.8
2018-09-05T01:42:34.432Z,14.8
2018-09-05T01:43:24.495Z,14.8
2018-09-05T01:44:14.856Z,14.8
2018-09-05T01:45:04.367Z,14.8
2018-09-05T01:45:54.694Z,14.8
2018-09-05T01:46:45.066Z,14.8
2018-09-05T01:47:35.108Z,14.8
2018-09-05T01:48:25.186Z,14.8
2018-09-05T01:49:14.954Z,14.8
2018-09-05T01:50:05.012Z,14.8
2018-09-05T01:50:54.837Z,14.8
2018-09-05T01:51:45.445Z,14.7
2018-09-05T01:52:35.212Z,14.7
2018-09-05T01:53:25.315Z,14.7
2018-09-05T01:54:15.874Z,14.7
2018-09-05T01:55:05.431Z,14.7
2018-09-05T01:55:55.751Z,14.7
2018-09-05T01:56:45.554Z,14.7
2018-09-05T01:57:35.898Z,14.7
2018-09-05T01:58:25.659Z,14.6
2018-09-05T01:59:16.017Z,14.6
2018-09-05T02:00:05.792Z,14.6
2018-09-05T02:00:56.158Z,14.6
2018-09-05T02:01:46.257Z,14.6
2018-09-05T02:02:36.271Z,14.6
2018-09-05T02:03:26.058Z,14.6
2018-09-05T02:04:16.393Z,14.6
2018-09-05T02:05:06.487Z,14.6
2018-09-05T02:05:56.541Z,14.6
2018-09-05T02:06:46.325Z,14.6
2018-09-05T02:07:36.376Z,14.6
2018-09-05T02:08:27.277Z,14.6
2018-09-05T02:09:16.539Z,14.6
2018-09-05T02:10:06.619Z,14.6
2018-09-05T02:10:56.931Z,14.5
2018-09-05T02:11:46.690Z,14.6
2018-09-05T02:12:37.054Z,14.6
2018-09-05T02:13:27.097Z,14.6
2018-09-05T02:14:16.882Z,14.6
2018-09-05T02:15:06.971Z,14.6
2018-09-05T02:15:57.283Z,14.5
2018-09-05T02:16:47.095Z,14.5
2018-09-05T02:17:37.425Z,14.5
2018-09-05T02:18:26.953Z,14.5
2018-09-05T02:19:17.565Z,14.5
2018-09-05T02:20:07.621Z,14.5
2018-09-05T02:20:57.702Z,14.5
2018-09-05T02:21:47.539Z,14.5
2018-09-05T02:22:37.537Z,14.5
2018-09-05T02:23:27.884Z,14.4
2018-09-05T02:24:17.647Z,14.5
2018-09-05T02:25:08.031Z,14.4
2018-09-05T02:25:58.073Z,14.4
2018-09-05T02:26:48.161Z,14.4
2018-09-05T02:27:38.184Z,14.4
2018-09-05T02:28:28.271Z,14.4
2018-09-05T02:29:18.039Z,14.4
2018-09-05T02:30:08.409Z,14.4
2018-09-05T02:30:58.491Z,14.4
2018-09-05T02:31:48.257Z,14.4
2018-09-05T02:32:38.297Z,14.4
2018-09-05T02:33:28.681Z,14.4
2018-09-05T02:34:18.436Z,14.4
2018-09-05T02:35:08.482Z,14.5
2018-09-05T02:35:58.836Z,14.5
2018-09-05T02:36:49.163Z,14.5
2018-09-05T02:37:38.978Z,14.4
2018-09-05T02:38:28.763Z,14.5
2018-09-05T02:39:18.820Z,14.4
2018-09-05T02:40:09.158Z,14.4
2018-09-05T02:40:59.277Z,14.5
2018-09-05T02:41:49.298Z,14.5
2018-09-05T02:42:39.099Z,14.5
2018-09-05T02:43:29.259Z,14.4
2018-09-05T02:44:19.511Z,14.4
2018-09-05T02:45:09.512Z,14.4
2018-09-05T02:45:59.548Z,14.5
2018-09-05T02:46:49.946Z,14.5
2018-09-05T02:47:39.739Z,14.5
2018-09-05T02:48:29.803Z,14.5
2018-09-05T02:49:19.917Z,14.5
2018-09-05T02:50:09.953Z,14.5
2018-09-05T02:50:59.988Z,14.5
2018-09-05T02:51:49.801Z,14.5
2018-09-05T02:52:39.851Z,14.5
2018-09-05T02:53:30.196Z,14.5
2018-09-05T02:54:20.278Z,14.5
2018-09-05T02:55:10.325Z,14.5
2018-09-05T02:56:00.869Z,14.5
2018-09-05T02:56:50.161Z,14.5
2018-09-05T02:57:40.524Z,14.5
2018-09-05T02:58:30.351Z,14.5
2018-09-05T02:59:20.069Z,14.5
2018-09-05T03:00:10.453Z,14.5
2018-09-05T03:01:00.787Z,14.5
2018-09-05T03:01:50.549Z,14.5
2018-09-05T03:02:40.321Z,14.5
2018-09-05T03:03:30.969Z,14.5
2018-09-05T03:04:20.749Z,14.5
2018-09-05T03:05:11.091Z,14.5
2018-09-05T03:06:00.876Z,14.5
2018-09-05T03:06:51.304Z,14.5
2018-09-05T03:07:41.262Z,14.5
2018-09-05T03:08:31.058Z,14.5
2018-09-05T03:09:21.618Z,14.5
2018-09-05T03:10:10.911Z,14.5
2018-09-05T03:11:01.256Z,14.4
2018-09-05T03:11:51.361Z,14.5
2018-09-05T03:12:41.637Z,14.4
2018-09-05T03:13:31.748Z,14.4
2018-09-05T03:14:21.219Z,14.4
2018-09-05T03:15:11.876Z,14.4
2018-09-05T03:16:01.936Z,14.4
2018-09-05T03:16:51.677Z,14.4
2018-09-05T03:17:41.516Z,14.4
2018-09-05T03:18:31.849Z,14.4
2018-09-05T03:19:22.185Z,14.4
2018-09-05T03:20:11.967Z,14.4
2018-09-05T03:21:02.567Z,14.4
2018-09-05T03:21:52.115Z,14.4
2018-09-05T03:22:42.263Z,14.4
2018-09-05T03:23:32.207Z,14.4
2018-09-05T03:24:22.028Z,14.4
2018-09-05T03:25:13.033Z,14.4
2018-09-05T03:26:02.423Z,14.4
2018-09-05T03:26:52.778Z,14.3
2018-09-05T03:27:42.829Z,14.4
2018-09-05T03:28:32.893Z,14.3
2018-09-05T03:29:22.963Z,14.3
2018-09-05T03:30:13.300Z,14.3
2018-09-05T03:31:02.735Z,14.3
2018-09-05T03:31:53.171Z,14.3
2018-09-05T03:32:43.065Z,14.3
2018-09-05T03:33:33.037Z,14.3
2018-09-05T03:34:23.058Z,14.3
2018-09-05T03:35:13.407Z,14.3
2018-09-05T03:36:03.439Z,14.3
2018-09-05T03:36:53.264Z,14.3
2018-09-05T03:37:43.317Z,14.3
2018-09-05T03:38:33.652Z,14.3
2018-09-05T03:39:23.177Z,14.3
2018-09-05T03:40:13.504Z,14.3
2018-09-05T03:41:04.069Z,14.3
2018-09-05T03:41:53.651Z,14.3
2018-09-05T03:42:43.997Z,14.3
2018-09-05T03:43:34.046Z,14.3
2018-09-05T03:44:24.125Z,14.3
2018-09-05T03:45:13.621Z,14.3
2018-09-05T03:46:04.422Z,14.3
2018-09-05T03:46:54.640Z,14.3
2018-09-05T03:47:44.472Z,14.2
2018-09-05T03:48:34.681Z,14.2
2018-09-05T03:49:24.606Z,14.3
2018-09-05T03:50:14.702Z,14.2
2018-09-05T03:51:04.736Z,14.2
2018-09-05T03:51:54.430Z,14.2
2018-09-05T03:52:44.200Z,14.2
2018-09-05T03:53:34.829Z,14.2
2018-09-05T03:54:24.942Z,14.2
2018-09-05T03:55:14.991Z,14.2
2018-09-05T03:56:04.744Z,14.2
2018-09-05T03:56:55.385Z,14.2
2018-09-05T03:57:45.167Z,14.2
2018-09-05T03:58:35.224Z,14.2
2018-09-05T03:59:25.281Z,14.2
2018-09-05T04:00:15.340Z,14.2
2018-09-05T04:01:05.648Z,14.2
2018-09-05T04:01:55.498Z,14.2
2018-09-05T04:02:45.526Z,14.2
2018-09-05T04:03:35.586Z,14.2
2018-09-05T04:04:25.393Z,14.2
2018-09-05T04:05:15.768Z,14.2
2018-09-05T04:06:05.786Z,14.2
2018-09-05T04:06:55.842Z,14.2
2018-09-05T04:07:45.911Z,14.1
2018-09-05T04:08:35.987Z,14.2
2018-09-05T04:09:26.041Z,14.2
2018-09-05T04:10:15.843Z,14.2
2018-09-05T04:11:06.191Z,14.2
2018-09-05T04:11:55.958Z,14.2
2018-09-05T04:12:46.303Z,14.2
2018-09-05T04:13:36.373Z,14.2
2018-09-05T04:14:26.428Z,14.2
2018-09-05T04:15:16.490Z,14.2
2018-09-05T04:16:06.279Z,14.2
2018-09-05T04:16:56.899Z,14.2
2018-09-05T04:17:46.950Z,14.2
2018-09-05T04:18:36.506Z,14.3
2018-09-05T04:19:26.368Z,14.3
2018-09-05T04:20:16.974Z,14.3
2018-09-05T04:21:06.681Z,14.3
2018-09-05T04:21:57.589Z,14.3
2018-09-05T04:22:47.119Z,14.3
2018-09-05T04:23:36.901Z,14.3
2018-09-05T04:24:27.231Z,14.3
2018-09-05T04:25:17.018Z,14.3
2018-09-05T04:26:07.517Z,14.3
2018-09-05T04:26:57.553Z,14.3
2018-09-05T04:27:47.488Z,14.3
2018-09-05T04:28:37.261Z,14.3
2018-09-05T04:29:27.932Z,14.3
2018-09-05T04:30:17.864Z,14.4
2018-09-05T04:31:07.984Z,14.4
2018-09-05T04:31:58.086Z,14.4
2018-09-05T04:32:47.847Z,14.4
2018-09-05T04:33:37.675Z,14.4
2018-09-05T04:34:27.967Z,14.4
2018-09-05T04:35:18.050Z,14.4
2018-09-05T04:36:08.363Z,14.4
2018-09-05T04:36:58.169Z,14.4
2018-09-05T04:37:48.228Z,14.5
2018-09-05T04:38:38.247Z,14.5
2018-09-05T04:39:28.372Z,14.5
2018-09-05T04:40:18.428Z,14.6
2018-09-05T04:41:08.480Z,14.6
2018-09-05T04:41:58.285Z,14.6
2018-09-05T04:42:48.077Z,14.6
2018-09-05T05:00:29.008Z,15.7
2018-09-05T05:01:18.782Z,15.8
2018-09-05T05:02:08.639Z,15.8
2018-09-05T05:02:58.908Z,15.9
2018-09-05T05:03:48.662Z,16
2018-09-05T05:04:39.431Z,16.1
2018-09-05T05:05:29.297Z,16.1
2018-09-05T05:06:19.155Z,16.1
2018-09-05T05:07:09.193Z,16.2
2018-09-05T05:07:59.258Z,16.3
2018-09-05T05:08:49.330Z,16.3
2018-09-05T05:09:39.415Z,16.3
2018-09-05T05:10:29.479Z,16.4
2018-09-05T05:11:19.516Z,16.4
2018-09-05T05:12:09.278Z,16.5
2018-09-05T05:12:59.633Z,16.5
2018-09-05T05:13:49.887Z,16.6
2018-09-05T05:14:39.767Z,16.6
2018-09-05T05:15:29.827Z,16.6
2018-09-05T05:16:19.898Z,16.7
2018-09-05T05:17:09.719Z,16.7
2018-09-05T05:18:00.060Z,16.8
2018-09-05T05:18:49.809Z,16.8
2018-09-05T05:19:40.194Z,16.8
2018-09-05T05:20:30.255Z,16.9
2018-09-05T05:21:19.793Z,16.9
2018-09-05T05:22:10.339Z,16.9
2018-09-05T05:23:50.557Z,17.1
2018-09-05T05:24:40.808Z,17.2
2018-09-05T05:25:30.604Z,17.4
2018-09-05T05:26:20.676Z,17.6
2018-09-05T05:27:10.729Z,17.8
2018-09-05T05:28:00.810Z,18.2
2018-09-05T05:28:50.861Z,18.6
2018-09-05T05:29:41.026Z,18.9
2018-09-05T05:30:31.014Z,19.4
2018-09-05T05:31:20.832Z,19.9
2018-09-05T05:32:10.853Z,20.6
2018-09-05T05:33:51.274Z,21.8
2018-09-05T05:34:42.164Z,22.3
2018-09-05T05:35:31.645Z,23
2018-09-05T05:36:21.189Z,23.6
2018-09-05T05:37:11.298Z,24.1
2018-09-05T05:38:02.323Z,24.6
2018-09-05T05:38:52.022Z,25.2
2018-09-05T05:39:42.993Z,25.7
2018-09-05T05:40:31.781Z,26.1
2018-09-05T05:41:22.071Z,26.5
2018-09-05T05:42:11.884Z,26.9
2018-09-05T05:43:01.673Z,27.1
2018-09-05T05:43:51.731Z,27.4
2018-09-05T05:44:41.788Z,27.6
2018-09-05T05:46:21.918Z,28.1
2018-09-05T05:47:12.273Z,28.5
2018-09-05T05:48:02.321Z,29
2018-09-05T05:48:52.396Z,29.5
2018-09-05T05:49:42.455Z,30.1
2018-09-05T05:50:32.577Z,30.6
2018-09-05T05:51:22.039Z,31.1
2018-09-05T05:52:12.660Z,31.7
2018-09-05T05:53:02.718Z,32.1
2018-09-05T05:53:52.795Z,32.4
2018-09-05T05:54:42.858Z,32.8
2018-09-05T05:55:32.353Z,33.2
2018-09-05T05:56:22.942Z,33.7
2018-09-05T05:57:12.768Z,34.3
2018-09-05T05:58:02.824Z,34.8
2018-09-05T05:58:52.876Z,35.4
2018-09-05T05:59:43.238Z,35.9
2018-09-05T06:00:33.303Z,36.5
2018-09-05T06:01:23.619Z,37.2
2018-09-05T06:02:13.435Z,37.7
2018-09-05T06:03:03.492Z,38.2
2018-09-05T06:03:53.293Z,38.7
2018-09-05T06:04:43.577Z,39.2
2018-09-05T06:05:33.676Z,39.7
2018-09-05T06:06:25.225Z,40.3
2018-09-05T06:07:13.814Z,40.9
2018-09-05T06:08:03.869Z,41.4
2018-09-05T06:08:53.944Z,42
2018-09-05T06:09:44.045Z,42.5
2018-09-05T06:10:33.802Z,42.9
2018-09-05T06:11:24.157Z,43.4
2018-09-05T06:12:14.571Z,43.8
2018-09-05T06:13:04.259Z,44.3
2018-09-05T06:13:54.347Z,44.7
2018-09-05T06:14:44.100Z,45.1
2018-09-05T06:15:34.946Z,45.6
2018-09-05T06:16:24.241Z,45.9
2018-09-05T06:17:14.804Z,46.3
2018-09-05T06:18:05.237Z,46.8
2018-09-05T06:18:54.734Z,47.2
2018-09-05T06:19:44.785Z,47.6
2018-09-05T06:20:34.867Z,47.9
2018-09-05T06:21:24.619Z,48.4
2018-09-05T06:22:15.242Z,48.9
2018-09-05T06:23:05.055Z,49.3
2018-09-05T06:23:55.046Z,49.7
2018-09-05T06:24:44.910Z,50.1
2018-09-05T06:25:35.481Z,50.6
2018-09-05T06:26:25.314Z,51.1
2018-09-05T06:27:15.461Z,51.5
2018-09-05T06:28:05.434Z,52.1
2018-09-05T06:28:55.496Z,52.6
2018-09-05T06:29:45.283Z,53
2018-09-05T06:30:37.230Z,53.5
2018-09-05T06:31:25.920Z,53.9
2018-09-05T06:32:15.481Z,54.4
2018-09-05T06:33:05.830Z,54.9
2018-09-05T06:33:55.869Z,55.4
2018-09-05T06:34:45.658Z,55.7
2018-09-05T06:35:36.144Z,56
2018-09-05T06:36:26.065Z,56.5
2018-09-05T06:37:16.130Z,57
2018-09-05T06:38:05.890Z,57.5
2018-09-05T06:38:56.289Z,57.9
2018-09-05T06:39:46.330Z,58.4
2018-09-05T06:40:36.118Z,58.9
2018-09-05T06:41:26.470Z,59.5
2018-09-05T06:42:15.977Z,59.9
2018-09-05T06:43:06.343Z,60.2
2018-09-05T06:43:56.658Z,60.6
2018-09-05T06:44:46.719Z,61.1
2018-09-05T06:45:36.815Z,61.6
2018-09-05T06:46:26.563Z,62.1
2018-09-05T06:47:16.340Z,62.5
2018-09-05T06:48:06.747Z,62.8
2018-09-05T06:48:56.782Z,63.1
2018-09-05T06:49:47.096Z,63.6
2018-09-05T06:50:36.910Z,64.1
2018-09-05T06:51:27.805Z,64.5
2018-09-05T06:52:17.350Z,64.8
2018-09-05T06:53:07.370Z,65.1
2018-09-05T06:53:57.431Z,65.5
2018-09-05T06:54:47.502Z,66.1
2018-09-05T06:55:37.267Z,66.6
2018-09-05T06:56:27.607Z,67
2018-09-05T06:57:17.684Z,67.3
2018-09-05T06:58:07.953Z,67.6
2018-09-05T06:58:57.827Z,68.5
2018-09-05T06:59:47.886Z,68.1
2018-09-05T07:00:37.939Z,64.9
2018-09-05T07:01:28.028Z,61.5
2018-09-05T07:02:18.071Z,55.4
2018-09-05T07:03:07.854Z,51.4
2018-09-05T07:03:58.634Z,49.7
2018-09-05T07:04:48.263Z,48.9
2018-09-05T07:05:38.323Z,48.5
2018-09-05T07:06:28.407Z,48.4
2018-09-05T07:07:18.168Z,48.8
2018-09-05T07:08:08.524Z,49.6
2018-09-05T07:08:58.591Z,50.5
2018-09-05T07:09:48.706Z,51.6
2018-09-05T07:10:38.142Z,52.8
2018-09-05T07:11:28.225Z,53.7
2018-09-05T07:12:18.848Z,54.9
2018-09-05T07:13:08.917Z,56
2018-09-05T07:13:58.532Z,57.2
2018-09-05T07:14:49.048Z,58.1
2018-09-05T07:15:38.626Z,59.1
2018-09-05T07:16:28.900Z,60.1
2018-09-05T07:17:19.251Z,60.9
2018-09-05T07:18:09.025Z,61.9
2018-09-05T07:18:59.072Z,62.7
2018-09-05T07:19:49.146Z,63.6
2018-09-05T07:20:39.200Z,64.3
2018-09-05T07:21:30.413Z,65
2018-09-05T07:22:19.352Z,65.4
2018-09-05T07:23:09.749Z,65.7
2018-09-05T07:23:59.762Z,65.7
2018-09-05T07:24:50.006Z,65.8
2018-09-05T07:25:39.880Z,66.1
2018-09-05T07:26:29.940Z,66.8
2018-09-05T07:27:19.729Z,67.4
2018-09-05T07:28:10.339Z,68.6
2018-09-05T07:29:00.157Z,68.9
2018-09-05T07:29:49.365Z,65.3
2018-09-05T07:30:40.714Z,62.9
2018-09-05T07:31:30.341Z,58.9
2018-09-05T07:32:20.403Z,55.6
2018-09-05T07:33:10.461Z,54
2018-09-05T07:34:00.248Z,53.6
2018-09-05T07:34:50.631Z,53.9
2018-09-05T07:35:40.871Z,54.7
2018-09-05T07:36:30.747Z,55.8
2018-09-05T07:37:20.586Z,56.9
2018-09-05T07:38:10.848Z,58.2
2018-09-05T07:39:00.628Z,59.4
2018-09-05T07:39:51.231Z,60.6
2018-09-05T07:40:41.030Z,61.9
2018-09-05T07:41:31.101Z,62.9
2018-09-05T07:42:21.168Z,64
2018-09-05T09:14:59.386Z,70.3
2018-09-05T09:15:48.900Z,70.3
2018-09-05T09:16:39.255Z,70.6
2018-09-05T09:17:29.317Z,70.9
2018-09-05T09:18:19.401Z,71
2018-09-05T09:19:09.713Z,71.3
2018-09-05T09:19:59.745Z,71.8
2018-09-05T09:20:50.108Z,71.7
2018-09-05T09:21:39.624Z,71.4
2018-09-05T09:22:29.970Z,70.9
2018-09-05T09:23:20.059Z,70.4
2018-09-05T09:24:10.115Z,70.2
2018-09-05T09:25:00.182Z,70.6
2018-09-05T09:25:49.927Z,71.1
2018-09-05T09:26:39.754Z,71.8
2018-09-05T09:27:30.370Z,72.4
2018-09-05T09:28:20.623Z,72.9
2018-09-05T09:29:09.939Z,73.1
2018-09-05T09:30:00.547Z,73
2018-09-05T09:30:50.349Z,73
2018-09-05T09:31:40.680Z,73.1
2018-09-05T09:32:30.502Z,73.4
2018-09-05T09:33:20.806Z,73.6
2018-09-05T09:34:10.320Z,73.8
2018-09-05T09:35:00.676Z,73.7
2018-09-05T09:35:50.732Z,72.5
2018-09-05T09:36:40.814Z,71.1
2018-09-05T09:37:30.604Z,70.9
2018-09-05T09:38:21.207Z,71.4
2018-09-05T09:39:11.279Z,72.1
2018-09-05T09:40:01.094Z,72.6
2018-09-05T09:40:51.409Z,72.9
2018-09-05T09:41:41.201Z,72.9
2018-09-05T09:42:31.238Z,72.8
2018-09-05T09:43:21.601Z,72.5
2018-09-05T09:44:11.676Z,72.5
2018-09-05T09:45:01.463Z,72.5
2018-09-05T09:45:51.831Z,72.8
2018-09-05T09:46:42.162Z,72.9
2018-09-05T09:47:31.655Z,73.1
2018-09-05T09:48:21.726Z,73.4
2018-09-05T09:49:12.048Z,73.6
2018-09-05T09:50:02.121Z,73.4
2018-09-05T09:50:51.628Z,73.3
2018-09-05T09:51:41.951Z,73.2
2018-09-05T09:52:32.273Z,73.3
2018-09-05T09:53:21.833Z,73.3
2018-09-05T09:54:11.868Z,73.4
2018-09-05T09:55:02.236Z,73.6
2018-09-05T09:55:52.109Z,73.8
2018-09-05T09:56:42.837Z,73.8
2018-09-05T09:57:32.432Z,73.8
2018-09-05T09:58:22.517Z,73.8
2018-09-05T09:59:12.668Z,73.8
2018-09-05T10:00:02.910Z,73.7
2018-09-05T10:00:52.709Z,73.8
2018-09-05T10:01:43.022Z,73.8
2018-09-05T10:02:32.575Z,73.8
2018-09-05T10:03:23.478Z,73.7
2018-09-05T10:04:13.232Z,73.8
2018-09-05T10:05:03.295Z,73.8
2018-09-05T10:05:52.803Z,73.8
2018-09-05T10:06:43.602Z,73.8
2018-09-05T10:07:33.608Z,74
2018-09-05T10:08:23.575Z,74.1
2018-09-05T10:09:13.624Z,74.1
2018-09-05T10:10:04.997Z,74.3
2018-09-05T10:10:53.729Z,74.2
2018-09-05T10:11:43.809Z,74.1
2018-09-05T10:12:33.874Z,74.1
2018-09-05T10:13:23.957Z,74.2
2018-09-05T10:14:14.014Z,74.1
2018-09-05T10:15:03.999Z,74
2018-09-05T10:15:54.134Z,73.9
2018-09-05T10:16:44.368Z,73.9
2018-09-05T10:17:34.311Z,74.1
2018-09-05T10:18:24.350Z,74.3
2018-09-05T10:19:14.139Z,74.4
2018-09-05T10:20:04.547Z,74.5
2018-09-05T10:20:54.862Z,74.6
2018-09-05T10:21:44.311Z,74.7
2018-09-05T10:22:34.723Z,74.6
2018-09-05T10:23:24.179Z,74.7
2018-09-05T10:24:14.796Z,74.5
2018-09-05T10:25:04.867Z,74.2
2018-09-05T10:25:54.987Z,74.4
2018-09-05T10:26:44.720Z,74.6
2018-09-05T10:27:35.071Z,74.8
2018-09-05T10:28:24.818Z,74.8
2018-09-05T10:29:14.897Z,74.9
2018-09-05T10:30:05.231Z,75.1
2018-09-05T10:30:55.309Z,74.9
2018-09-05T10:31:45.455Z,74.9
2018-09-05T10:32:35.153Z,75.1
2018-09-05T10:33:25.263Z,75.2
2018-09-05T10:34:14.995Z,75.4
2018-09-05T10:35:05.628Z,75.6
2018-09-05T10:35:55.429Z,75.8
2018-09-05T10:36:45.475Z,75.6
2018-09-05T10:37:35.562Z,75.4
2018-09-05T10:38:25.642Z,75.4
2018-09-05T10:39:15.764Z,75.5
2018-09-05T10:40:06.002Z,75.4
2018-09-05T10:40:55.524Z,75.4
2018-09-05T10:41:45.847Z,75.6
2018-09-05T10:42:36.480Z,75.7
2018-09-05T10:43:26.519Z,75.6
2018-09-05T10:44:16.733Z,75.7
2018-09-05T10:45:06.117Z,75.9
2018-09-05T10:45:56.467Z,76.1
2018-09-05T10:46:46.267Z,76.2
2018-09-05T10:47:36.326Z,76.3
2018-09-05T10:48:26.664Z,76.3
2018-09-05T10:49:16.724Z,76.3
2018-09-05T10:50:06.785Z,76
2018-09-05T10:50:56.847Z,75.9
2018-09-05T10:51:46.915Z,75.9
2018-09-05T10:52:36.694Z,76.1
2018-09-05T10:53:27.073Z,76.1
2018-09-05T10:54:17.131Z,76
2018-09-05T10:55:06.914Z,76.1
2018-09-05T10:55:57.267Z,76.3
2018-09-05T10:56:46.754Z,76.4
2018-09-05T10:57:37.621Z,76.4
2018-09-05T10:58:27.464Z,76.3
2018-09-05T10:59:16.946Z,76.1
2018-09-05T11:00:07.614Z,76.1
2018-09-05T11:00:57.356Z,76.4
2018-09-05T11:01:47.700Z,76.6
2018-09-05T11:02:37.487Z,76.6
2018-09-05T11:03:27.802Z,76.4
2018-09-05T11:04:17.944Z,76.4
2018-09-05T11:05:07.951Z,76.3
2018-09-05T11:05:57.768Z,76.3
2018-09-05T11:06:47.818Z,76.3
2018-09-05T11:07:37.634Z,76.3
2018-09-05T11:08:28.471Z,76.3
2018-09-05T11:09:18.335Z,76.3
2018-09-05T11:10:07.811Z,76.3
2018-09-05T11:10:59.069Z,76.2
2018-09-05T11:11:48.495Z,76.3
2018-09-05T11:12:38.272Z,76.2
2018-09-05T11:13:28.343Z,76.2
2018-09-05T11:14:18.698Z,76.1
2018-09-05T11:15:08.758Z,76.1
2018-09-05T11:15:58.536Z,76.2
2018-09-05T11:16:48.590Z,76.3
2018-09-05T11:17:38.930Z,76.4
2018-09-05T11:18:28.473Z,76.6
2018-09-05T11:19:18.787Z,76.6
2018-09-05T11:20:09.140Z,76.8
2018-09-05T11:20:58.947Z,76.6
2018-09-05T11:21:49.270Z,76.6
2018-09-05T11:22:39.342Z,76.7
2018-09-05T11:23:29.420Z,76.8
2018-09-05T11:24:19.432Z,76.8
2018-09-05T11:25:09.530Z,76.9
2018-09-05T11:25:59.592Z,76.3
2018-09-05T11:26:49.670Z,74.5
2018-09-05T11:27:39.824Z,72.7
2018-09-05T11:28:29.226Z,72.4
2018-09-05T11:29:19.894Z,73.4
2018-09-05T11:30:09.347Z,74.3
2018-09-05T11:30:59.984Z,74.1
2018-09-05T11:31:49.774Z,73.5
2018-09-05T11:32:39.832Z,73.8
2018-09-05T11:33:29.887Z,74.2
2018-09-05T11:34:20.486Z,74.5
2018-09-05T11:35:10.033Z,74.8
2018-09-05T11:36:00.368Z,74.9
2018-09-05T11:36:50.339Z,74.8
2018-09-05T11:37:40.496Z,73
2018-09-05T11:38:30.558Z,70.8
2018-09-05T11:39:20.898Z,69.4
2018-09-05T11:40:10.426Z,69
2018-09-05T11:41:00.485Z,68.8
2018-09-05T11:41:50.266Z,69.1
2018-09-05T11:42:40.606Z,70.6
2018-09-05T11:43:30.686Z,72.8
2018-09-05T11:44:21.273Z,74.6
2018-09-05T11:45:11.343Z,76.1
2018-09-05T11:46:01.155Z,77.4
2018-09-05T11:46:50.918Z,78.6
2018-09-05T11:47:41.343Z,80.6
2018-09-05T11:48:31.380Z,81.7
2018-09-05T11:49:21.691Z,79.2
2018-09-05T11:50:11.473Z,75.1
2018-09-05T11:51:01.280Z,69.6
2018-09-05T11:51:51.380Z,66.6
2018-09-05T11:52:41.683Z,65.6
2018-09-05T11:53:31.732Z,65.3
2018-09-05T11:54:21.504Z,65.9
2018-09-05T11:55:11.916Z,67.2
2018-09-05T11:56:01.988Z,68.8
2018-09-05T11:56:51.709Z,70.3
2018-09-05T11:57:41.987Z,71.9
2018-09-05T11:58:31.889Z,73.6
2018-09-05T11:59:21.970Z,75
2018-09-05T12:00:12.277Z,76.2
2018-09-05T12:01:02.362Z,77.3
2018-09-05T12:01:52.405Z,80
2018-09-05T12:02:42.228Z,79.8
2018-09-05T12:03:32.532Z,77.4
2018-09-05T12:04:22.592Z,74.4
2018-09-05T12:05:12.641Z,70.7
2018-09-05T12:06:02.961Z,68.7
2018-09-05T12:06:52.801Z,67.9
2018-09-05T12:07:42.851Z,67.7
2018-09-05T12:08:32.661Z,67.8
2018-09-05T12:09:22.702Z,68.6
2018-09-05T12:10:13.306Z,70
2018-09-05T12:11:03.371Z,71.6
2018-09-05T12:11:53.218Z,73.1
2018-09-05T12:12:42.943Z,74.3
2018-09-05T12:13:33.319Z,75.3
2018-09-05T12:14:23.366Z,76.2
2018-09-05T12:15:13.423Z,77.2
2018-09-05T12:16:03.218Z,79.1
2018-09-05T12:16:53.553Z,80.6
2018-09-05T12:17:43.620Z,78.2
2018-09-05T12:18:33.902Z,75.4
2018-09-05T12:19:23.498Z,70.9
2018-09-05T12:20:14.102Z,68.3
2018-09-05T12:21:03.915Z,67.2
2018-09-05T12:21:53.725Z,66.8
2018-09-05T12:22:44.045Z,66.8
2018-09-05T12:23:34.038Z,67.1
2018-09-05T12:24:23.887Z,68.1
2018-09-05T12:25:14.219Z,69.5
2018-09-05T12:26:04.005Z,70.9
2018-09-05T12:26:54.369Z,72.2
2018-09-05T12:27:43.860Z,73.4
2018-09-05T12:28:34.482Z,74.3
2018-09-05T12:29:24.820Z,74.8
2018-09-05T12:30:14.025Z,75.5
2018-09-05T12:31:04.102Z,76.1
2018-09-05T12:31:54.447Z,76.7
2018-09-05T12:32:44.813Z,77.8
2018-09-05T12:33:34.569Z,79.9
2018-09-05T12:34:24.642Z,78.3
2018-09-05T12:35:14.695Z,75.7
2018-09-05T12:36:05.042Z,71.5
2018-09-05T12:36:55.117Z,68.3
2018-09-05T12:37:45.187Z,66.9
2018-09-05T12:38:35.247Z,66.1
2018-09-05T12:39:25.343Z,65.8
2018-09-05T12:40:15.104Z,66.1
2018-09-05T12:41:05.440Z,67.1
2018-09-05T12:41:55.510Z,68.3
2018-09-05T12:42:45.575Z,69.3
2018-09-05T12:43:35.364Z,70.4
2018-09-05T12:44:25.723Z,71.3
2018-09-05T12:45:15.774Z,72
2018-09-05T12:46:05.549Z,72.7
2018-09-05T12:46:55.906Z,73.4
2018-09-05T12:47:46.001Z,74.1
2018-09-05T12:48:35.460Z,74.6
2018-09-05T12:49:25.537Z,75.1
2018-09-05T12:50:15.901Z,75.7
2018-09-05T12:51:05.951Z,76.3
2018-09-05T12:51:56.288Z,76.6
2018-09-05T12:52:46.060Z,77
2018-09-05T12:53:35.868Z,79
2018-09-05T12:54:26.222Z,78.5
2018-09-05T12:55:16.266Z,75.4
2018-09-05T12:56:06.643Z,71.3
2018-09-05T12:56:56.730Z,67.5
2018-09-05T12:57:46.738Z,65.6
2018-09-05T12:58:36.535Z,64.6
2018-09-05T12:59:27.671Z,64.3
2018-09-05T13:00:16.383Z,64.3
2018-09-05T13:01:07.018Z,64.8
2018-09-05T13:01:57.062Z,65.8
2018-09-05T13:02:47.127Z,66.5
2018-09-05T13:03:37.161Z,67.1
2018-09-05T13:04:27.310Z,67.8
2018-09-05T13:05:17.064Z,68.4
2018-09-05T13:06:07.436Z,69.1
2018-09-05T13:06:57.522Z,69.7
2018-09-05T13:07:47.263Z,70.1
2018-09-05T13:08:37.586Z,70.6
2018-09-05T13:09:27.712Z,71
2018-09-05T13:10:17.715Z,71.4
2018-09-05T13:11:07.505Z,72
2018-09-05T13:11:57.877Z,72.5
2018-09-05T13:12:47.990Z,72.8
2018-09-05T13:13:38.298Z,72.9
2018-09-05T13:14:27.213Z,73.1
2018-09-05T13:15:17.832Z,73.2
2018-09-05T13:16:08.449Z,73.4
2018-09-05T13:16:58.257Z,73.7
2018-09-05T13:17:47.754Z,73.9
2018-09-05T13:18:38.059Z,74